Abu Dhabi, UAE

3:09 AM GST on April 02, 2015 (GMT +0400)
Abu Dhabi International | | Change Station
CLOSE
Current Station
Airport
Location: Abu Dhabi,
Elevation: 89 ft
Nearby Weather Stations

Elev 89 ft 24.43 °N, 54.65 °E | Updated 9 minutes ago

Clear
Clear
84 °F
Feels Like 84 °F
N
9
Wind Variable Wind from South

Today
High -- | Low -- °F
--% Chance of Precip.
Yesterday
High -- | Low -- °F
Precip. -- in
6:12 AM 6:37 PM
Waxing Gibbous, 94% visible
Pressure 29.59 in
Visibility 4.3 miles
Clouds
Heat Index 84 °F
Dew Point 59 °F
Humidity 42%
Rainfall 0.00 in
Snow Depth Not available.
UV Not available.
Pollen Not available.
Air Quality Not available.
Flu Activity Not available.
METAR OMAA 012300Z 19008KT 170V250 7000 NSC 29/15 Q1002 A2960 NOSIG

More Conditions Fewer Conditions

Pressure 29.59 in
Visibility 4.3 miles
Clouds
Heat Index 84 °F
Dew Point 59 °F
Humidity 42%
Rainfall 0.00 in
Snow Depth Not available.
UV Not available.
Pollen Not available.
Air Quality Not available.
Flu Activity Not available.
METAR OMAA 012300Z 19008KT 170V250 7000 NSC 29/15 Q1002 A2960 NOSIG

More Conditions Fewer Conditions

10-Day Weather Forecast

Almanac

Astronomy

Apr. 02, 2015 Rise Set
Actual Time
Civil Twilight
Nautical Twilight
Astronomical Twilight
Moon
Length of Visible Light
Length of Day
Tomorrow will be .
, % of the Moon is Illuminated

Today's Extremes

Country Highs Country Lows

Community

WunderPhotos

Upload Photos

1,810,110 photos uploaded!

WunderBlogs® & News

Nearby

Air Quality

  Air Quality AQ Index Pollutant
Not available.

Snow Depth

Station Depth Elevation

Earthquake Activity

City Distance Mag. Time & Date
Minimum magnitude displayed is 2.5.

Coastal Water Temperatures

Place Temperature

Stations

Nearby Weather Stations

Station Location Temp. Windchill Dew Point Humidity Wind Precip. Elev Updated Type